sensor_id;sensor_type;location;lat;lon;timestamp;P1;durP1;ratioP1;P2;durP2;ratioP2
38358;SDS011;42072;48.044;14.416;2023-01-28T00:02:03;30.20;;;15.20;;
38358;SDS011;42072;48.044;14.416;2023-01-28T00:04:30;30.85;;;16.55;;
38358;SDS011;42072;48.044;14.416;2023-01-28T00:06:57;26.08;;;14.48;;
38358;SDS011;42072;48.044;14.416;2023-01-28T00:09:24;26.15;;;14.23;;
38358;SDS011;42072;48.044;14.416;2023-01-28T00:11:51;28.70;;;15.32;;
38358;SDS011;42072;48.044;14.416;2023-01-28T00:14:18;31.58;;;16.67;;
38358;SDS011;42072;48.044;14.416;2023-01-28T00:16:46;26.25;;;15.27;;
38358;SDS011;42072;48.044;14.416;2023-01-28T00:19:13;29.33;;;14.70;;
38358;SDS011;42072;48.044;14.416;2023-01-28T00:21:40;26.42;;;14.70;;
38358;SDS011;42072;48.044;14.416;2023-01-28T00:24:07;27.38;;;14.05;;
38358;SDS011;42072;48.044;14.416;2023-01-28T00:26:35;27.65;;;14.63;;
38358;SDS011;42072;48.044;14.416;2023-01-28T00:29:02;26.45;;;14.32;;
38358;SDS011;42072;48.044;14.416;2023-01-28T00:31:29;28.15;;;15.63;;
38358;SDS011;42072;48.044;14.416;2023-01-28T00:33:56;27.55;;;14.85;;
38358;SDS011;42072;48.044;14.416;2023-01-28T00:36:24;30.50;;;15.57;;
38358;SDS011;42072;48.044;14.416;2023-01-28T00:38:53;28.73;;;15.15;;
38358;SDS011;42072;48.044;14.416;2023-01-28T00:41:23;26.67;;;15.05;;
38358;SDS011;42072;48.044;14.416;2023-01-28T00:43:51;30.25;;;14.85;;
38358;SDS011;42072;48.044;14.416;2023-01-28T00:46:20;29.17;;;15.65;;
38358;SDS011;42072;48.044;14.416;2023-01-28T00:48:48;26.73;;;14.23;;
38358;SDS011;42072;48.044;14.416;2023-01-28T00:51:16;30.98;;;14.40;;
38358;SDS011;42072;48.044;14.416;2023-01-28T00:53:45;29.48;;;14.35;;
38358;SDS011;42072;48.044;14.416;2023-01-28T00:56:14;24.70;;;13.82;;
38358;SDS011;42072;48.044;14.416;2023-01-28T00:58:43;28.48;;;13.68;;
38358;SDS011;42072;48.044;14.416;2023-01-28T01:01:11;27.65;;;14.27;;
38358;SDS011;42072;48.044;14.416;2023-01-28T01:03:46;28.08;;;14.55;;
38358;SDS011;42072;48.044;14.416;2023-01-28T01:06:19;30.40;;;14.53;;
38358;SDS011;42072;48.044;14.416;2023-01-28T01:08:47;25.00;;;13.93;;
38358;SDS011;42072;48.044;14.416;2023-01-28T01:11:15;25.80;;;13.93;;
38358;SDS011;42072;48.044;14.416;2023-01-28T01:13:44;26.77;;;14.73;;
38358;SDS011;42072;48.044;14.416;2023-01-28T01:16:15;26.98;;;14.43;;
38358;SDS011;42072;48.044;14.416;2023-01-28T01:18:43;28.20;;;14.13;;
38358;SDS011;42072;48.044;14.416;2023-01-28T01:21:11;26.98;;;13.98;;
38358;SDS011;42072;48.044;14.416;2023-01-28T01:23:41;28.98;;;15.45;;
38358;SDS011;42072;48.044;14.416;2023-01-28T01:26:08;28.48;;;15.00;;
38358;SDS011;42072;48.044;14.416;2023-01-28T01:28:36;26.33;;;14.43;;
38358;SDS011;42072;48.044;14.416;2023-01-28T01:31:07;25.67;;;13.98;;
38358;SDS011;42072;48.044;14.416;2023-01-28T01:33:44;27.92;;;14.35;;
38358;SDS011;42072;48.044;14.416;2023-01-28T01:36:13;25.65;;;13.80;;
38358;SDS011;42072;48.044;14.416;2023-01-28T01:38:42;26.98;;;13.63;;
38358;SDS011;42072;48.044;14.416;2023-01-28T01:41:15;25.10;;;13.50;;
38358;SDS011;42072;48.044;14.416;2023-01-28T01:43:54;22.60;;;12.98;;
38358;SDS011;42072;48.044;14.416;2023-01-28T01:46:39;30.05;;;15.65;;
38358;SDS011;42072;48.044;14.416;2023-01-28T01:51:43;26.20;;;13.77;;
38358;SDS011;42072;48.044;14.416;2023-01-28T01:54:13;26.40;;;14.20;;
38358;SDS011;42072;48.044;14.416;2023-01-28T01:56:42;23.92;;;13.90;;
38358;SDS011;42072;48.044;14.416;2023-01-28T01:59:13;26.95;;;14.18;;
38358;SDS011;42072;48.044;14.416;2023-01-28T02:01:45;28.48;;;14.52;;
38358;SDS011;42072;48.044;14.416;2023-01-28T02:04:17;27.88;;;13.75;;
38358;SDS011;42072;48.044;14.416;2023-01-28T02:09:24;27.25;;;13.75;;
38358;SDS011;42072;48.044;14.416;2023-01-28T02:11:55;26.65;;;13.43;;
38358;SDS011;42072;48.044;14.416;2023-01-28T02:14:27;26.42;;;13.75;;
38358;SDS011;42072;48.044;14.416;2023-01-28T02:16:58;25.65;;;13.65;;
38358;SDS011;42072;48.044;14.416;2023-01-28T02:19:37;26.65;;;14.30;;
38358;SDS011;42072;48.044;14.416;2023-01-28T02:22:57;26.35;;;14.05;;
38358;SDS011;42072;48.044;14.416;2023-01-28T02:30:39;24.08;;;13.90;;
38358;SDS011;42072;48.044;14.416;2023-01-28T02:33:13;28.55;;;13.82;;
38358;SDS011;42072;48.044;14.416;2023-01-28T02:35:53;26.38;;;13.88;;
38358;SDS011;42072;48.044;14.416;2023-01-28T02:41:03;28.55;;;14.27;;
38358;SDS011;42072;48.044;14.416;2023-01-28T02:49:29;28.73;;;14.23;;
38358;SDS011;42072;48.044;14.416;2023-01-28T03:06:27;28.00;;;14.65;;
38358;SDS011;42072;48.044;14.416;2023-01-28T03:09:00;28.73;;;14.75;;
38358;SDS011;42072;48.044;14.416;2023-01-28T03:11:54;29.42;;;14.18;;
38358;SDS011;42072;48.044;14.416;2023-01-28T03:14:44;30.73;;;13.90;;
38358;SDS011;42072;48.044;14.416;2023-01-28T03:17:37;24.95;;;13.52;;
38358;SDS011;42072;48.044;14.416;2023-01-28T03:20:37;24.77;;;13.43;;
38358;SDS011;42072;48.044;14.416;2023-01-28T03:23:42;25.15;;;13.75;;
38358;SDS011;42072;48.044;14.416;2023-01-28T03:26:53;27.05;;;13.35;;
38358;SDS011;42072;48.044;14.416;2023-01-28T03:29:46;29.42;;;15.10;;
38358;SDS011;42072;48.044;14.416;2023-01-28T03:32:36;27.02;;;13.43;;
38358;SDS011;42072;48.044;14.416;2023-01-28T03:35:23;30.20;;;14.65;;
38358;SDS011;42072;48.044;14.416;2023-01-28T03:38:14;24.45;;;13.50;;
38358;SDS011;42072;48.044;14.416;2023-01-28T03:40:56;27.52;;;14.07;;
38358;SDS011;42072;48.044;14.416;2023-01-28T03:43:25;24.35;;;12.98;;
38358;SDS011;42072;48.044;14.416;2023-01-28T03:45:54;27.35;;;13.50;;
38358;SDS011;42072;48.044;14.416;2023-01-28T03:48:23;26.70;;;13.70;;
38358;SDS011;42072;48.044;14.416;2023-01-28T03:50:53;26.63;;;14.73;;
38358;SDS011;42072;48.044;14.416;2023-01-28T03:53:21;26.50;;;13.40;;
38358;SDS011;42072;48.044;14.416;2023-01-28T03:55:49;26.95;;;13.30;;
38358;SDS011;42072;48.044;14.416;2023-01-28T03:58:18;27.38;;;13.27;;
38358;SDS011;42072;48.044;14.416;2023-01-28T04:00:46;25.55;;;13.32;;
38358;SDS011;42072;48.044;14.416;2023-01-28T04:03:14;24.83;;;12.88;;
38358;SDS011;42072;48.044;14.416;2023-01-28T04:06:00;29.13;;;13.68;;
38358;SDS011;42072;48.044;14.416;2023-01-28T04:10:55;27.88;;;13.80;;
38358;SDS011;42072;48.044;14.416;2023-01-28T04:13:23;25.30;;;13.10;;
38358;SDS011;42072;48.044;14.416;2023-01-28T04:15:50;25.73;;;13.10;;
38358;SDS011;42072;48.044;14.416;2023-01-28T04:18:17;28.98;;;13.10;;
38358;SDS011;42072;48.044;14.416;2023-01-28T04:20:47;26.60;;;15.25;;
38358;SDS011;42072;48.044;14.416;2023-01-28T04:23:15;28.52;;;13.95;;
38358;SDS011;42072;48.044;14.416;2023-01-28T04:25:42;26.40;;;14.25;;
38358;SDS011;42072;48.044;14.416;2023-01-28T04:28:09;28.33;;;13.80;;
38358;SDS011;42072;48.044;14.416;2023-01-28T04:30:36;24.85;;;13.27;;
38358;SDS011;42072;48.044;14.416;2023-01-28T04:33:03;24.85;;;12.85;;
38358;SDS011;42072;48.044;14.416;2023-01-28T04:35:30;29.45;;;14.15;;
38358;SDS011;42072;48.044;14.416;2023-01-28T04:37:57;25.10;;;12.50;;
38358;SDS011;42072;48.044;14.416;2023-01-28T04:40:24;25.73;;;13.13;;
38358;SDS011;42072;48.044;14.416;2023-01-28T04:42:55;29.17;;;14.75;;
38358;SDS011;42072;48.044;14.416;2023-01-28T04:45:23;25.48;;;13.95;;
38358;SDS011;42072;48.044;14.416;2023-01-28T04:47:50;27.67;;;14.13;;
38358;SDS011;42072;48.044;14.416;2023-01-28T04:50:17;26.60;;;14.25;;
38358;SDS011;42072;48.044;14.416;2023-01-28T04:52:44;26.65;;;13.55;;
38358;SDS011;42072;48.044;14.416;2023-01-28T04:55:11;26.88;;;14.60;;
38358;SDS011;42072;48.044;14.416;2023-01-28T04:57:39;27.98;;;14.57;;
38358;SDS011;42072;48.044;14.416;2023-01-28T05:00:06;26.27;;;13.77;;
38358;SDS011;42072;48.044;14.416;2023-01-28T05:02:34;25.90;;;13.20;;
38358;SDS011;42072;48.044;14.416;2023-01-28T05:05:02;25.58;;;13.52;;
38358;SDS011;42072;48.044;14.416;2023-01-28T05:07:31;26.45;;;13.80;;
38358;SDS011;42072;48.044;14.416;2023-01-28T05:09:58;24.80;;;13.63;;
38358;SDS011;42072;48.044;14.416;2023-01-28T05:12:25;27.33;;;14.48;;
38358;SDS011;42072;48.044;14.416;2023-01-28T05:14:52;27.52;;;14.18;;
38358;SDS011;42072;48.044;14.416;2023-01-28T05:17:20;25.17;;;14.07;;
38358;SDS011;42072;48.044;14.416;2023-01-28T05:19:47;27.23;;;13.95;;
38358;SDS011;42072;48.044;14.416;2023-01-28T05:22:14;31.10;;;15.25;;
38358;SDS011;42072;48.044;14.416;2023-01-28T05:24:41;29.00;;;14.77;;
38358;SDS011;42072;48.044;14.416;2023-01-28T05:27:08;28.40;;;15.27;;
38358;SDS011;42072;48.044;14.416;2023-01-28T05:29:35;27.98;;;14.80;;
38358;SDS011;42072;48.044;14.416;2023-01-28T05:32:02;29.85;;;15.00;;
38358;SDS011;42072;48.044;14.416;2023-01-28T05:34:30;30.88;;;14.80;;
38358;SDS011;42072;48.044;14.416;2023-01-28T05:36:57;28.58;;;15.70;;
38358;SDS011;42072;48.044;14.416;2023-01-28T05:39:24;32.75;;;15.25;;
38358;SDS011;42072;48.044;14.416;2023-01-28T05:41:51;28.83;;;15.05;;
38358;SDS011;42072;48.044;14.416;2023-01-28T05:44:18;27.67;;;14.00;;
38358;SDS011;42072;48.044;14.416;2023-01-28T05:46:45;28.58;;;15.07;;
38358;SDS011;42072;48.044;14.416;2023-01-28T05:49:12;29.80;;;14.90;;
38358;SDS011;42072;48.044;14.416;2023-01-28T05:51:40;32.80;;;16.30;;
38358;SDS011;42072;48.044;14.416;2023-01-28T05:54:07;29.77;;;15.40;;
38358;SDS011;42072;48.044;14.416;2023-01-28T05:56:35;29.90;;;15.55;;
38358;SDS011;42072;48.044;14.416;2023-01-28T05:59:02;29.67;;;16.30;;
38358;SDS011;42072;48.044;14.416;2023-01-28T06:01:31;29.98;;;16.08;;
38358;SDS011;42072;48.044;14.416;2023-01-28T06:03:58;27.63;;;14.57;;
38358;SDS011;42072;48.044;14.416;2023-01-28T06:06:26;27.77;;;15.30;;
38358;SDS011;42072;48.044;14.416;2023-01-28T06:08:53;30.23;;;14.90;;
38358;SDS011;42072;48.044;14.416;2023-01-28T06:11:20;30.13;;;14.98;;
38358;SDS011;42072;48.044;14.416;2023-01-28T06:13:47;28.63;;;14.50;;
38358;SDS011;42072;48.044;14.416;2023-01-28T06:16:14;31.08;;;14.50;;
38358;SDS011;42072;48.044;14.416;2023-01-28T06:18:42;32.17;;;15.80;;
38358;SDS011;42072;48.044;14.416;2023-01-28T06:21:10;27.67;;;14.35;;
38358;SDS011;42072;48.044;14.416;2023-01-28T06:23:37;28.27;;;15.68;;
38358;SDS011;42072;48.044;14.416;2023-01-28T06:26:04;28.20;;;13.93;;
38358;SDS011;42072;48.044;14.416;2023-01-28T06:28:31;27.35;;;14.45;;
38358;SDS011;42072;48.044;14.416;2023-01-28T06:30:58;30.58;;;15.50;;
38358;SDS011;42072;48.044;14.416;2023-01-28T06:33:26;30.60;;;14.57;;
38358;SDS011;42072;48.044;14.416;2023-01-28T06:35:54;27.48;;;14.68;;
38358;SDS011;42072;48.044;14.416;2023-01-28T06:38:21;31.08;;;14.80;;
38358;SDS011;42072;48.044;14.416;2023-01-28T06:40:52;29.45;;;14.55;;
38358;SDS011;42072;48.044;14.416;2023-01-28T06:43:21;32.10;;;16.83;;
38358;SDS011;42072;48.044;14.416;2023-01-28T06:45:56;30.67;;;16.08;;
38358;SDS011;42072;48.044;14.416;2023-01-28T06:48:24;34.67;;;16.58;;
38358;SDS011;42072;48.044;14.416;2023-01-28T06:50:52;31.63;;;15.75;;
38358;SDS011;42072;48.044;14.416;2023-01-28T06:53:20;34.33;;;16.70;;
38358;SDS011;42072;48.044;14.416;2023-01-28T06:55:47;40.35;;;19.95;;
38358;SDS011;42072;48.044;14.416;2023-01-28T06:58:15;37.17;;;19.13;;
38358;SDS011;42072;48.044;14.416;2023-01-28T07:00:42;33.40;;;17.30;;
38358;SDS011;42072;48.044;14.416;2023-01-28T07:03:09;34.90;;;17.30;;
38358;SDS011;42072;48.044;14.416;2023-01-28T07:05:37;35.88;;;17.52;;
38358;SDS011;42072;48.044;14.416;2023-01-28T07:08:04;34.33;;;17.35;;
38358;SDS011;42072;48.044;14.416;2023-01-28T07:10:32;37.78;;;18.10;;
38358;SDS011;42072;48.044;14.416;2023-01-28T07:12:59;35.55;;;17.30;;
38358;SDS011;42072;48.044;14.416;2023-01-28T07:15:27;32.90;;;17.65;;
38358;SDS011;42072;48.044;14.416;2023-01-28T07:17:54;33.45;;;17.23;;
38358;SDS011;42072;48.044;14.416;2023-01-28T07:20:21;41.22;;;19.33;;
38358;SDS011;42072;48.044;14.416;2023-01-28T07:22:48;34.42;;;18.13;;
38358;SDS011;42072;48.044;14.416;2023-01-28T07:25:15;37.72;;;19.27;;
38358;SDS011;42072;48.044;14.416;2023-01-28T07:27:47;40.38;;;19.33;;
38358;SDS011;42072;48.044;14.416;2023-01-28T07:30:16;39.15;;;18.38;;
38358;SDS011;42072;48.044;14.416;2023-01-28T07:32:44;42.35;;;19.77;;
38358;SDS011;42072;48.044;14.416;2023-01-28T07:35:12;46.63;;;21.50;;
38358;SDS011;42072;48.044;14.416;2023-01-28T07:37:39;48.92;;;22.83;;
38358;SDS011;42072;48.044;14.416;2023-01-28T07:40:07;47.25;;;21.88;;
38358;SDS011;42072;48.044;14.416;2023-01-28T07:42:34;47.05;;;21.55;;
38358;SDS011;42072;48.044;14.416;2023-01-28T07:45:02;43.38;;;21.17;;
38358;SDS011;42072;48.044;14.416;2023-01-28T07:47:30;46.78;;;21.63;;
38358;SDS011;42072;48.044;14.416;2023-01-28T07:49:57;40.30;;;20.52;;
38358;SDS011;42072;48.044;14.416;2023-01-28T07:52:24;47.83;;;24.25;;
38358;SDS011;42072;48.044;14.416;2023-01-28T07:54:51;51.70;;;23.80;;
38358;SDS011;42072;48.044;14.416;2023-01-28T07:57:19;47.33;;;22.92;;
38358;SDS011;42072;48.044;14.416;2023-01-28T07:59:48;42.38;;;21.55;;
38358;SDS011;42072;48.044;14.416;2023-01-28T08:02:18;45.70;;;22.27;;
38358;SDS011;42072;48.044;14.416;2023-01-28T08:04:46;41.10;;;20.25;;
38358;SDS011;42072;48.044;14.416;2023-01-28T08:07:13;39.13;;;19.98;;
38358;SDS011;42072;48.044;14.416;2023-01-28T08:09:40;41.83;;;20.23;;
38358;SDS011;42072;48.044;14.416;2023-01-28T08:12:07;41.78;;;20.67;;
38358;SDS011;42072;48.044;14.416;2023-01-28T08:14:34;53.03;;;23.92;;
38358;SDS011;42072;48.044;14.416;2023-01-28T08:17:02;41.65;;;20.65;;
38358;SDS011;42072;48.044;14.416;2023-01-28T08:19:29;42.20;;;20.75;;
38358;SDS011;42072;48.044;14.416;2023-01-28T08:21:56;40.53;;;19.75;;
38358;SDS011;42072;48.044;14.416;2023-01-28T08:24:23;39.85;;;19.55;;
38358;SDS011;42072;48.044;14.416;2023-01-28T08:26:50;41.08;;;20.17;;
38358;SDS011;42072;48.044;14.416;2023-01-28T08:29:17;59.78;;;27.48;;
38358;SDS011;42072;48.044;14.416;2023-01-28T08:31:44;58.17;;;25.85;;
38358;SDS011;42072;48.044;14.416;2023-01-28T08:34:12;48.90;;;23.75;;
38358;SDS011;42072;48.044;14.416;2023-01-28T08:36:39;40.88;;;20.92;;
38358;SDS011;42072;48.044;14.416;2023-01-28T08:39:06;39.38;;;19.33;;
38358;SDS011;42072;48.044;14.416;2023-01-28T08:41:33;38.92;;;19.35;;
38358;SDS011;42072;48.044;14.416;2023-01-28T08:44:00;35.53;;;18.00;;
38358;SDS011;42072;48.044;14.416;2023-01-28T08:46:27;45.60;;;22.23;;
38358;SDS011;42072;48.044;14.416;2023-01-28T08:48:54;34.80;;;17.40;;
38358;SDS011;42072;48.044;14.416;2023-01-28T08:51:22;30.05;;;16.83;;
38358;SDS011;42072;48.044;14.416;2023-01-28T08:53:49;33.83;;;18.60;;
38358;SDS011;42072;48.044;14.416;2023-01-28T08:56:16;39.17;;;20.30;;
38358;SDS011;42072;48.044;14.416;2023-01-28T08:58:43;43.97;;;20.33;;
38358;SDS011;42072;48.044;14.416;2023-01-28T09:01:10;39.42;;;19.58;;
38358;SDS011;42072;48.044;14.416;2023-01-28T09:03:37;39.72;;;19.45;;
38358;SDS011;42072;48.044;14.416;2023-01-28T09:06:04;38.65;;;17.38;;
38358;SDS011;42072;48.044;14.416;2023-01-28T09:08:32;38.65;;;18.52;;
38358;SDS011;42072;48.044;14.416;2023-01-28T09:10:59;34.40;;;18.05;;
38358;SDS011;42072;48.044;14.416;2023-01-28T09:13:26;35.78;;;17.70;;
38358;SDS011;42072;48.044;14.416;2023-01-28T09:15:54;37.05;;;17.92;;
38358;SDS011;42072;48.044;14.416;2023-01-28T09:18:22;34.20;;;17.38;;
38358;SDS011;42072;48.044;14.416;2023-01-28T09:20:49;36.22;;;17.27;;
38358;SDS011;42072;48.044;14.416;2023-01-28T09:23:16;37.70;;;18.48;;
38358;SDS011;42072;48.044;14.416;2023-01-28T09:25:43;39.28;;;18.65;;
38358;SDS011;42072;48.044;14.416;2023-01-28T09:28:10;38.22;;;19.00;;
38358;SDS011;42072;48.044;14.416;2023-01-28T09:30:37;36.95;;;17.98;;
38358;SDS011;42072;48.044;14.416;2023-01-28T09:33:05;33.70;;;17.10;;
38358;SDS011;42072;48.044;14.416;2023-01-28T09:35:33;40.63;;;18.25;;
38358;SDS011;42072;48.044;14.416;2023-01-28T09:38:01;35.88;;;18.05;;
38358;SDS011;42072;48.044;14.416;2023-01-28T09:45:44;39.20;;;19.08;;
38358;SDS011;42072;48.044;14.416;2023-01-28T09:48:18;41.83;;;21.03;;
38358;SDS011;42072;48.044;14.416;2023-01-28T09:50:49;34.92;;;17.80;;
38358;SDS011;42072;48.044;14.416;2023-01-28T09:53:22;38.08;;;17.83;;
38358;SDS011;42072;48.044;14.416;2023-01-28T09:55:59;34.47;;;18.05;;
38358;SDS011;42072;48.044;14.416;2023-01-28T09:58:32;36.83;;;19.13;;
38358;SDS011;42072;48.044;14.416;2023-01-28T10:06:18;38.03;;;17.73;;
38358;SDS011;42072;48.044;14.416;2023-01-28T10:14:39;37.75;;;19.65;;
38358;SDS011;42072;48.044;14.416;2023-01-28T10:17:38;35.40;;;18.83;;
38358;SDS011;42072;48.044;14.416;2023-01-28T10:22:47;39.60;;;18.98;;
38358;SDS011;42072;48.044;14.416;2023-01-28T10:25:23;39.67;;;20.00;;
38358;SDS011;42072;48.044;14.416;2023-01-28T10:27:52;36.88;;;19.00;;
38358;SDS011;42072;48.044;14.416;2023-01-28T10:30:24;34.30;;;18.20;;
38358;SDS011;42072;48.044;14.416;2023-01-28T10:35:56;41.47;;;20.10;;
38358;SDS011;42072;48.044;14.416;2023-01-28T10:38:23;75.22;;;30.92;;
38358;SDS011;42072;48.044;14.416;2023-01-28T10:40:52;52.90;;;25.85;;
38358;SDS011;42072;48.044;14.416;2023-01-28T10:43:28;44.47;;;22.50;;
38358;SDS011;42072;48.044;14.416;2023-01-28T10:46:08;44.03;;;22.63;;
38358;SDS011;42072;48.044;14.416;2023-01-28T10:48:55;49.80;;;22.27;;
38358;SDS011;42072;48.044;14.416;2023-01-28T10:51:37;43.60;;;22.42;;
38358;SDS011;42072;48.044;14.416;2023-01-28T10:54:22;41.00;;;21.42;;
38358;SDS011;42072;48.044;14.416;2023-01-28T10:56:54;42.50;;;21.55;;
38358;SDS011;42072;48.044;14.416;2023-01-28T10:59:29;45.92;;;22.17;;
38358;SDS011;42072;48.044;14.416;2023-01-28T11:01:57;47.63;;;22.67;;
38358;SDS011;42072;48.044;14.416;2023-01-28T11:04:33;46.85;;;22.70;;
38358;SDS011;42072;48.044;14.416;2023-01-28T11:07:17;49.97;;;23.55;;
38358;SDS011;42072;48.044;14.416;2023-01-28T11:12:25;47.88;;;22.73;;
38358;SDS011;42072;48.044;14.416;2023-01-28T11:17:25;48.00;;;22.73;;
38358;SDS011;42072;48.044;14.416;2023-01-28T11:19:55;54.25;;;23.08;;
38358;SDS011;42072;48.044;14.416;2023-01-28T11:22:33;50.78;;;22.95;;
38358;SDS011;42072;48.044;14.416;2023-01-28T11:25:15;51.00;;;25.20;;
38358;SDS011;42072;48.044;14.416;2023-01-28T11:27:50;67.10;;;29.83;;
38358;SDS011;42072;48.044;14.416;2023-01-28T11:30:23;61.72;;;26.30;;
38358;SDS011;42072;48.044;14.416;2023-01-28T11:32:56;48.78;;;23.15;;
38358;SDS011;42072;48.044;14.416;2023-01-28T11:35:29;48.78;;;22.60;;
38358;SDS011;42072;48.044;14.416;2023-01-28T11:37:57;48.85;;;22.27;;
38358;SDS011;42072;48.044;14.416;2023-01-28T11:40:26;44.22;;;22.52;;
38358;SDS011;42072;48.044;14.416;2023-01-28T11:42:54;47.20;;;21.92;;
38358;SDS011;42072;48.044;14.416;2023-01-28T11:45:37;50.45;;;22.25;;
38358;SDS011;42072;48.044;14.416;2023-01-28T11:48:27;51.92;;;23.27;;
38358;SDS011;42072;48.044;14.416;2023-01-28T11:51:56;42.92;;;21.95;;
38358;SDS011;42072;48.044;14.416;2023-01-28T11:59:46;48.33;;;22.73;;
38358;SDS011;42072;48.044;14.416;2023-01-28T12:10:23;49.88;;;23.58;;
38358;SDS011;42072;48.044;14.416;2023-01-28T12:18:58;53.13;;;25.08;;
38358;SDS011;42072;48.044;14.416;2023-01-28T12:27:49;51.78;;;24.30;;
38358;SDS011;42072;48.044;14.416;2023-01-28T12:41:06;57.03;;;26.35;;
38358;SDS011;42072;48.044;14.416;2023-01-28T12:49:42;59.20;;;26.58;;
38358;SDS011;42072;48.044;14.416;2023-01-28T12:53:20;60.10;;;26.95;;
38358;SDS011;42072;48.044;14.416;2023-01-28T12:57:52;60.35;;;26.23;;
38358;SDS011;42072;48.044;14.416;2023-01-28T13:05:45;48.72;;;23.27;;
38358;SDS011;42072;48.044;14.416;2023-01-28T13:08:24;49.25;;;24.00;;
38358;SDS011;42072;48.044;14.416;2023-01-28T13:10:53;47.40;;;22.35;;
38358;SDS011;42072;48.044;14.416;2023-01-28T13:13:35;52.33;;;25.05;;
38358;SDS011;42072;48.044;14.416;2023-01-28T13:16:06;56.47;;;23.58;;
38358;SDS011;42072;48.044;14.416;2023-01-28T13:24:02;47.60;;;22.13;;
38358;SDS011;42072;48.044;14.416;2023-01-28T13:26:45;45.15;;;21.98;;
38358;SDS011;42072;48.044;14.416;2023-01-28T13:31:45;45.83;;;22.70;;
38358;SDS011;42072;48.044;14.416;2023-01-28T13:34:31;49.17;;;23.95;;
38358;SDS011;42072;48.044;14.416;2023-01-28T13:40:06;47.63;;;22.15;;
38358;SDS011;42072;48.044;14.416;2023-01-28T13:42:38;44.25;;;21.73;;
38358;SDS011;42072;48.044;14.416;2023-01-28T13:47:45;46.67;;;21.45;;
38358;SDS011;42072;48.044;14.416;2023-01-28T13:50:15;43.90;;;20.58;;
38358;SDS011;42072;48.044;14.416;2023-01-28T13:52:49;46.30;;;22.05;;
38358;SDS011;42072;48.044;14.416;2023-01-28T13:55:23;49.88;;;22.77;;
38358;SDS011;42072;48.044;14.416;2023-01-28T14:14:31;51.50;;;23.15;;
38358;SDS011;42072;48.044;14.416;2023-01-28T14:17:16;48.25;;;22.63;;
38358;SDS011;42072;48.044;14.416;2023-01-28T14:19:56;48.10;;;21.38;;
38358;SDS011;42072;48.044;14.416;2023-01-28T14:22:23;42.75;;;19.85;;
38358;SDS011;42072;48.044;14.416;2023-01-28T14:24:52;43.05;;;21.42;;
38358;SDS011;42072;48.044;14.416;2023-01-28T14:27:23;46.67;;;22.23;;
38358;SDS011;42072;48.044;14.416;2023-01-28T14:32:34;47.70;;;22.10;;
38358;SDS011;42072;48.044;14.416;2023-01-28T14:35:06;50.72;;;23.90;;
38358;SDS011;42072;48.044;14.416;2023-01-28T14:37:35;47.63;;;22.60;;
38358;SDS011;42072;48.044;14.416;2023-01-28T14:40:04;43.20;;;20.77;;
38358;SDS011;42072;48.044;14.416;2023-01-28T14:42:36;43.50;;;21.27;;
38358;SDS011;42072;48.044;14.416;2023-01-28T14:48:25;45.28;;;21.27;;
38358;SDS011;42072;48.044;14.416;2023-01-28T14:59:41;43.05;;;19.92;;
38358;SDS011;42072;48.044;14.416;2023-01-28T15:02:21;42.95;;;20.05;;
38358;SDS011;42072;48.044;14.416;2023-01-28T15:04:51;45.40;;;20.85;;
38358;SDS011;42072;48.044;14.416;2023-01-28T15:07:20;42.80;;;20.33;;
38358;SDS011;42072;48.044;14.416;2023-01-28T15:13:06;53.17;;;25.55;;
38358;SDS011;42072;48.044;14.416;2023-01-28T15:15:37;62.58;;;25.95;;
38358;SDS011;42072;48.044;14.416;2023-01-28T15:18:12;45.40;;;21.33;;
38358;SDS011;42072;48.044;14.416;2023-01-28T15:20:45;59.53;;;29.40;;
38358;SDS011;42072;48.044;14.416;2023-01-28T15:23:24;63.47;;;27.83;;
38358;SDS011;42072;48.044;14.416;2023-01-28T15:25:58;63.58;;;26.85;;
38358;SDS011;42072;48.044;14.416;2023-01-28T15:28:31;78.65;;;31.40;;
38358;SDS011;42072;48.044;14.416;2023-01-28T15:31:00;69.78;;;30.92;;
38358;SDS011;42072;48.044;14.416;2023-01-28T15:33:28;52.35;;;25.38;;
38358;SDS011;42072;48.044;14.416;2023-01-28T15:35:56;50.80;;;23.25;;
38358;SDS011;42072;48.044;14.416;2023-01-28T15:38:25;51.17;;;24.13;;
38358;SDS011;42072;48.044;14.416;2023-01-28T15:40:57;47.20;;;21.60;;
38358;SDS011;42072;48.044;14.416;2023-01-28T15:43:30;49.25;;;23.08;;
38358;SDS011;42072;48.044;14.416;2023-01-28T15:46:00;43.13;;;20.77;;
38358;SDS011;42072;48.044;14.416;2023-01-28T15:48:28;49.97;;;23.27;;
38358;SDS011;42072;48.044;14.416;2023-01-28T15:51:06;44.15;;;20.95;;
38358;SDS011;42072;48.044;14.416;2023-01-28T15:53:43;45.95;;;21.30;;
38358;SDS011;42072;48.044;14.416;2023-01-28T15:56:13;46.53;;;21.08;;
38358;SDS011;42072;48.044;14.416;2023-01-28T15:58:41;39.72;;;19.42;;
38358;SDS011;42072;48.044;14.416;2023-01-28T16:03:36;46.17;;;20.38;;
38358;SDS011;42072;48.044;14.416;2023-01-28T16:06:07;44.17;;;20.88;;
38358;SDS011;42072;48.044;14.416;2023-01-28T16:11:08;46.45;;;21.50;;
38358;SDS011;42072;48.044;14.416;2023-01-28T16:13:40;49.40;;;22.83;;
38358;SDS011;42072;48.044;14.416;2023-01-28T16:16:09;46.50;;;21.98;;
38358;SDS011;42072;48.044;14.416;2023-01-28T16:18:38;46.92;;;22.13;;
38358;SDS011;42072;48.044;14.416;2023-01-28T16:21:06;45.67;;;20.65;;
38358;SDS011;42072;48.044;14.416;2023-01-28T16:23:38;59.33;;;23.98;;
38358;SDS011;42072;48.044;14.416;2023-01-28T16:26:18;47.47;;;22.50;;
38358;SDS011;42072;48.044;14.416;2023-01-28T16:28:48;49.10;;;22.92;;
38358;SDS011;42072;48.044;14.416;2023-01-28T16:31:16;48.22;;;21.27;;
38358;SDS011;42072;48.044;14.416;2023-01-28T16:33:44;45.40;;;21.17;;
38358;SDS011;42072;48.044;14.416;2023-01-28T16:36:12;48.40;;;21.75;;
38358;SDS011;42072;48.044;14.416;2023-01-28T16:38:42;52.50;;;23.27;;
38358;SDS011;42072;48.044;14.416;2023-01-28T16:41:10;46.13;;;22.15;;
38358;SDS011;42072;48.044;14.416;2023-01-28T16:43:46;48.67;;;22.35;;
38358;SDS011;42072;48.044;14.416;2023-01-28T16:46:14;49.55;;;22.98;;
38358;SDS011;42072;48.044;14.416;2023-01-28T16:48:42;52.20;;;23.02;;
38358;SDS011;42072;48.044;14.416;2023-01-28T16:51:13;48.05;;;22.77;;
38358;SDS011;42072;48.044;14.416;2023-01-28T16:53:47;52.78;;;24.40;;
38358;SDS011;42072;48.044;14.416;2023-01-28T16:56:15;54.58;;;23.10;;
38358;SDS011;42072;48.044;14.416;2023-01-28T16:59:08;51.17;;;22.90;;
38358;SDS011;42072;48.044;14.416;2023-01-28T17:01:40;36.53;;;17.63;;
38358;SDS011;42072;48.044;14.416;2023-01-28T17:04:09;49.50;;;22.88;;
38358;SDS011;42072;48.044;14.416;2023-01-28T17:06:39;45.42;;;20.98;;
38358;SDS011;42072;48.044;14.416;2023-01-28T17:09:10;46.40;;;22.55;;
38358;SDS011;42072;48.044;14.416;2023-01-28T17:11:39;51.05;;;23.15;;
38358;SDS011;42072;48.044;14.416;2023-01-28T17:14:07;49.22;;;23.50;;
38358;SDS011;42072;48.044;14.416;2023-01-28T17:16:36;59.10;;;26.88;;
38358;SDS011;42072;48.044;14.416;2023-01-28T17:19:04;56.20;;;25.85;;